Time;durP1;ratioP1;P1;durP2;ratioP2;P2;SDS_P1;SDS_P2;PMS_P1;PMS_P2;Temp;Humidity;BMP_temperature;BMP_pressure;BME280_temperature;BME280_humidity;BME280_pressure;Samples;Min_cycle;Max_cycle;Signal;HPM_P1;HPM_P2
2023/05/26 00:01:46;;;;;;;25.20;4.68;;;12.00;99.90;;;;;;4985500;28;20045;-78
2023/05/26 00:04:17;;;;;;;28.65;3.90;;;11.90;99.90;;;;;;4991091;28;20037;-78
2023/05/26 00:06:52;;;;;;;25.83;4.35;;;11.90;99.90;;;;;;5002952;28;20038;-78
2023/05/26 00:09:21;;;;;;;23.02;4.30;;;11.90;99.90;;;;;;4988466;28;20481;-79
2023/05/26 00:11:47;;;;;;;24.92;4.53;;;11.90;99.90;;;;;;4991158;28;20034;-80
2023/05/26 00:14:14;;;;;;;31.08;4.07;;;11.80;99.90;;;;;;4991287;28;20131;-80
2023/05/26 00:16:40;;;;;;;32.22;3.97;;;11.80;99.90;;;;;;4991844;28;20058;-80
2023/05/26 00:19:07;;;;;;;27.58;4.30;;;11.80;99.90;;;;;;4991201;28;20030;-80
2023/05/26 00:21:35;;;;;;;27.50;4.25;;;11.80;99.90;;;;;;4987376;28;20096;-79
2023/05/26 00:24:01;;;;;;;30.13;4.95;;;11.70;99.90;;;;;;4992252;28;20069;-79
2023/05/26 00:26:27;;;;;;;32.50;4.55;;;11.70;99.90;;;;;;4990340;28;20461;-79
2023/05/26 00:28:52;;;;;;;33.97;4.63;;;11.70;99.90;;;;;;4988207;28;20097;-80
2023/05/26 00:31:18;;;;;;;34.08;4.35;;;11.60;99.90;;;;;;4987883;28;20049;-79
2023/05/26 00:33:43;;;;;;;35.40;4.72;;;11.50;99.90;;;;;;4992613;28;20098;-80
2023/05/26 00:36:09;;;;;;;29.80;5.18;;;11.50;99.90;;;;;;4988697;28;20022;-79
2023/05/26 00:38:35;;;;;;;33.33;4.60;;;11.50;99.90;;;;;;4992135;28;20552;-79
2023/05/26 00:41:00;;;;;;;26.48;4.00;;;11.50;99.90;;;;;;4995392;28;20499;-80
2023/05/26 00:43:26;;;;;;;33.13;5.07;;;11.40;99.90;;;;;;4993687;28;20408;-79
2023/05/26 00:45:52;;;;;;;33.22;4.80;;;11.40;99.90;;;;;;5004456;28;20509;-79
2023/05/26 00:48:17;;;;;;;37.13;5.07;;;11.40;99.90;;;;;;4988492;28;20042;-79
2023/05/26 00:50:43;;;;;;;31.27;4.45;;;11.40;99.90;;;;;;4986944;28;20658;-79
2023/05/26 00:53:11;;;;;;;21.48;4.57;;;11.30;99.90;;;;;;4988910;28;20026;-80
2023/05/26 00:55:37;;;;;;;30.38;5.03;;;11.30;99.90;;;;;;4988849;28;20033;-80
2023/05/26 00:58:03;;;;;;;30.77;4.35;;;11.20;99.90;;;;;;5108080;22;20054;-81
2023/05/26 01:00:30;;;;;;;32.22;4.85;;;11.20;99.90;;;;;;4980256;28;20105;-80
2023/05/26 01:02:58;;;;;;;32.60;5.15;;;11.20;99.90;;;;;;4980164;28;20537;-81
2023/05/26 01:05:25;;;;;;;29.33;4.47;;;11.20;99.90;;;;;;4982513;28;20120;-83
2023/05/26 01:07:51;;;;;;;24.15;3.92;;;11.10;99.90;;;;;;4981215;28;20309;-80
2023/05/26 01:10:17;;;;;;;29.17;5.20;;;11.10;99.90;;;;;;4980343;28;20077;-79
2023/05/26 01:13:01;;;;;;;20.33;3.88;;;11.10;99.90;;;;;;4980492;28;20021;-83
2023/05/26 01:15:36;;;;;;;28.83;4.28;;;11.10;99.90;;;;;;4982565;28;20053;-80
2023/05/26 01:20:45;;;;;;;33.55;4.55;;;11.00;99.90;;;;;;5065662;22;20497;-81
2023/05/26 01:26:19;;;;;;;20.08;3.75;;;10.90;99.90;;;;;;5209773;22;20519;-80
2023/05/26 01:28:46;;;;;;;27.75;4.32;;;10.80;99.90;;;;;;5010035;28;20083;-82
2023/05/26 01:31:12;;;;;;;27.13;4.05;;;10.80;99.90;;;;;;5009807;28;20062;-81
2023/05/26 01:33:38;;;;;;;23.42;4.60;;;10.70;99.90;;;;;;5009497;28;20044;-82
2023/05/26 01:36:04;;;;;;;32.17;5.00;;;10.70;99.90;;;;;;5014716;28;20017;-80
2023/05/26 01:38:29;;;;;;;30.95;5.00;;;10.60;99.90;;;;;;5013404;28;20022;-82
2023/05/26 01:41:18;;;;;;;28.52;4.88;;;10.60;99.90;;;;;;5026463;28;20021;-82
2023/05/26 01:44:10;;;;;;;29.35;4.70;;;10.60;99.90;;;;;;5184042;22;20148;-81
2023/05/26 01:46:47;;;;;;;27.92;4.65;;;10.50;99.90;;;;;;5013015;28;20456;-81
2023/05/26 01:49:15;;;;;;;30.00;4.60;;;10.50;99.90;;;;;;5022161;28;20164;-79
2023/05/26 01:51:46;;;;;;;23.10;3.85;;;10.50;99.90;;;;;;5012495;28;20440;-81
2023/05/26 01:54:14;;;;;;;33.92;5.15;;;10.50;99.90;;;;;;5011687;28;20025;-80
2023/05/26 01:56:40;;;;;;;22.05;4.03;;;10.50;99.90;;;;;;5014272;28;20045;-81
2023/05/26 01:59:06;;;;;;;34.53;4.55;;;10.40;99.90;;;;;;5015422;28;20464;-82
2023/05/26 02:01:33;;;;;;;32.72;4.43;;;10.40;99.90;;;;;;5013317;28;20091;-82
2023/05/26 02:03:59;;;;;;;30.40;4.47;;;10.40;99.90;;;;;;5012902;28;20041;-83
2023/05/26 02:06:26;;;;;;;36.72;4.63;;;10.40;99.90;;;;;;5012244;28;20072;-83
2023/05/26 02:08:51;;;;;;;30.60;4.57;;;10.40;99.90;;;;;;5011648;28;20060;-82
2023/05/26 02:11:17;;;;;;;33.38;4.60;;;10.40;99.90;;;;;;5013688;28;20515;-82
2023/05/26 02:13:45;;;;;;;25.15;4.18;;;10.40;99.90;;;;;;5013158;28;20049;-81
2023/05/26 02:16:13;;;;;;;32.63;4.97;;;10.40;99.90;;;;;;5012129;28;20028;-82
2023/05/26 02:18:39;;;;;;;30.48;5.10;;;10.40;99.90;;;;;;5012505;28;20033;-82
2023/05/26 02:21:05;;;;;;;37.67;4.57;;;10.40;99.90;;;;;;5011811;28;20033;-83
2023/05/26 02:23:32;;;;;;;33.92;4.47;;;10.40;99.90;;;;;;5011530;28;20135;-81
2023/05/26 02:25:58;;;;;;;34.72;4.60;;;10.40;99.90;;;;;;5013339;28;20135;-82
2023/05/26 02:28:24;;;;;;;32.95;4.10;;;10.40;99.90;;;;;;5013337;28;20403;-82
2023/05/26 02:30:49;;;;;;;33.45;4.35;;;10.30;99.90;;;;;;5013773;28;20084;-82
2023/05/26 02:33:15;;;;;;;20.02;3.67;;;10.30;99.90;;;;;;5012211;28;20022;-82
2023/05/26 02:35:41;;;;;;;30.40;4.85;;;10.30;99.90;;;;;;5010143;28;20149;-82
2023/05/26 02:38:06;;;;;;;25.65;4.43;;;10.30;99.90;;;;;;5010510;28;20033;-82
2023/05/26 02:40:32;;;;;;;33.50;4.50;;;10.30;99.90;;;;;;5013318;28;20246;-82
2023/05/26 02:42:58;;;;;;;30.60;4.38;;;10.20;99.90;;;;;;5011573;28;20120;-82
2023/05/26 02:45:23;;;;;;;22.95;3.92;;;10.20;99.90;;;;;;5014466;28;20037;-82
2023/05/26 02:47:49;;;;;;;38.42;5.10;;;10.20;99.90;;;;;;5012926;28;20021;-82
2023/05/26 02:50:14;;;;;;;37.50;4.32;;;10.20;99.90;;;;;;5012015;28;20026;-82
2023/05/26 02:52:40;;;;;;;38.15;4.10;;;10.20;99.90;;;;;;5010276;28;20028;-83
2023/05/26 02:55:08;;;;;;;33.15;4.93;;;10.10;99.90;;;;;;5012003;28;20104;-83
2023/05/26 02:57:33;;;;;;;32.38;4.82;;;10.10;99.90;;;;;;5010375;28;20025;-79
2023/05/26 02:59:59;;;;;;;24.70;4.28;;;10.10;99.90;;;;;;5006190;28;20026;-80
2023/05/26 03:02:25;;;;;;;23.05;4.60;;;10.10;99.90;;;;;;5008915;28;20128;-83
2023/05/26 03:04:52;;;;;;;30.63;4.40;;;10.10;99.90;;;;;;5013491;28;20112;-82
2023/05/26 03:07:17;;;;;;;34.38;3.85;;;10.10;99.90;;;;;;5010107;28;20501;-82
2023/05/26 03:09:43;;;;;;;36.42;4.75;;;10.10;99.90;;;;;;5009160;28;20107;-83
2023/05/26 03:12:09;;;;;;;33.75;4.40;;;10.10;99.90;;;;;;5008587;28;20032;-82
2023/05/26 03:14:34;;;;;;;29.48;4.45;;;10.10;99.90;;;;;;5011265;28;20052;-83
2023/05/26 03:17:00;;;;;;;34.42;5.03;;;10.00;99.90;;;;;;5012248;28;20433;-82
2023/05/26 03:19:26;;;;;;;29.65;4.75;;;10.10;99.90;;;;;;5010076;28;20028;-81
2023/05/26 03:21:51;;;;;;;36.00;5.18;;;10.00;99.90;;;;;;5007882;28;20030;-84
2023/05/26 03:24:18;;;;;;;33.20;4.72;;;10.00;99.90;;;;;;5012410;28;20055;-81
2023/05/26 03:26:43;;;;;;;36.50;4.85;;;10.00;99.90;;;;;;5010358;28;20030;-82
2023/05/26 03:29:09;;;;;;;24.52;4.20;;;10.00;99.90;;;;;;5009475;28;20018;-81
2023/05/26 03:31:35;;;;;;;36.03;4.93;;;10.00;99.90;;;;;;5012332;28;20022;-82
2023/05/26 03:34:01;;;;;;;27.85;4.90;;;9.90;99.90;;;;;;5010347;28;20030;-81
2023/05/26 03:36:26;;;;;;;29.98;4.38;;;9.90;99.90;;;;;;5013251;28;20029;-82
2023/05/26 03:38:52;;;;;;;26.77;4.47;;;9.90;99.90;;;;;;5011737;28;20108;-82
2023/05/26 03:41:18;;;;;;;40.47;4.85;;;9.90;99.90;;;;;;5004150;28;20366;-81
2023/05/26 03:43:43;;;;;;;43.35;5.13;;;9.90;99.90;;;;;;5013422;28;20048;-83
2023/05/26 03:46:09;;;;;;;35.95;5.38;;;9.90;99.90;;;;;;5009294;28;20117;-81
2023/05/26 03:48:34;;;;;;;33.53;5.55;;;9.80;99.90;;;;;;5008806;28;20172;-82
2023/05/26 03:51:00;;;;;;;40.63;5.93;;;9.80;99.90;;;;;;5013121;28;20477;-80
2023/05/26 03:53:26;;;;;;;31.52;5.95;;;9.80;99.90;;;;;;5009374;28;20021;-82
2023/05/26 03:55:51;;;;;;;31.38;5.72;;;9.90;99.90;;;;;;5010736;28;20140;-82
2023/05/26 03:58:17;;;;;;;29.48;5.53;;;9.90;99.90;;;;;;5005097;28;20449;-81
2023/05/26 04:00:46;;;;;;;35.50;5.97;;;9.90;99.90;;;;;;5002168;28;20049;-81
2023/05/26 04:03:12;;;;;;;33.58;5.70;;;9.80;99.90;;;;;;5012765;28;20025;-81
2023/05/26 04:05:38;;;;;;;31.17;5.40;;;9.90;99.90;;;;;;5012335;28;20129;-81
2023/05/26 04:08:04;;;;;;;27.05;5.30;;;9.90;99.90;;;;;;5010325;28;20150;-81
2023/05/26 04:10:29;;;;;;;28.23;5.13;;;10.00;99.90;;;;;;5033604;28;20037;-80
2023/05/26 04:12:55;;;;;;;34.63;5.82;;;10.00;99.90;;;;;;5017382;28;20101;-82
2023/05/26 04:15:21;;;;;;;34.53;4.78;;;10.00;99.90;;;;;;5007390;28;20033;-82
2023/05/26 04:17:46;;;;;;;35.35;5.43;;;10.00;99.90;;;;;;5008414;28;20100;-82
2023/05/26 04:20:12;;;;;;;36.03;5.60;;;10.10;99.90;;;;;;5005495;28;20045;-82
2023/05/26 04:22:38;;;;;;;21.45;4.93;;;10.10;99.90;;;;;;5013019;28;20037;-82
2023/05/26 04:25:04;;;;;;;33.53;4.50;;;10.10;99.90;;;;;;5010323;28;20048;-82
2023/05/26 04:27:30;;;;;;;34.85;4.70;;;10.10;99.90;;;;;;5007504;28;20187;-82
2023/05/26 04:29:58;;;;;;;25.23;5.22;;;10.10;99.90;;;;;;5011532;28;20092;-81
2023/05/26 04:32:24;;;;;;;32.90;4.80;;;10.20;99.90;;;;;;5011422;28;20410;-81
2023/05/26 04:34:50;;;;;;;35.38;5.15;;;10.20;99.90;;;;;;5006569;28;20444;-81
2023/05/26 04:37:16;;;;;;;28.63;4.80;;;10.30;99.90;;;;;;5011062;28;20013;-82
2023/05/26 04:39:42;;;;;;;29.20;4.05;;;10.30;99.90;;;;;;5004938;28;20030;-81
2023/05/26 04:42:08;;;;;;;22.70;4.15;;;10.40;99.90;;;;;;5010441;28;20280;-81
2023/05/26 04:44:38;;;;;;;32.00;4.90;;;10.50;99.90;;;;;;5006659;28;20064;-81
2023/05/26 04:47:08;;;;;;;27.50;4.80;;;10.40;99.90;;;;;;5009610;28;20642;-80
2023/05/26 04:49:37;;;;;;;30.77;4.82;;;10.50;99.90;;;;;;5010585;28;20025;-83
2023/05/26 04:52:04;;;;;;;28.95;4.50;;;10.60;99.90;;;;;;5014097;28;20025;-83
2023/05/26 04:54:30;;;;;;;31.83;5.35;;;10.60;99.90;;;;;;5010157;28;20030;-83
2023/05/26 04:56:56;;;;;;;31.98;4.75;;;10.60;99.90;;;;;;5009028;28;20013;-83
2023/05/26 04:59:22;;;;;;;35.75;4.90;;;10.60;99.90;;;;;;5037710;28;20091;-81
2023/05/26 05:01:48;;;;;;;35.40;4.93;;;10.70;99.90;;;;;;5031460;28;20024;-83
2023/05/26 05:04:14;;;;;;;39.97;5.07;;;10.60;99.90;;;;;;5040070;28;20013;-82
2023/05/26 05:06:40;;;;;;;36.33;5.10;;;10.60;99.90;;;;;;5032099;28;20044;-82
2023/05/26 05:09:06;;;;;;;31.92;4.97;;;10.70;99.90;;;;;;5012789;28;20735;-83
2023/05/26 05:11:31;;;;;;;36.88;5.05;;;10.70;99.90;;;;;;5013055;28;20115;-83
2023/05/26 05:13:57;;;;;;;22.98;4.47;;;10.80;99.90;;;;;;5003438;28;20107;-79
2023/05/26 05:16:23;;;;;;;34.95;4.68;;;10.90;99.90;;;;;;5011231;28;20118;-79
2023/05/26 05:18:49;;;;;;;34.67;5.35;;;11.00;99.90;;;;;;5006575;28;20135;-84
2023/05/26 05:21:14;;;;;;;35.17;4.95;;;11.00;99.90;;;;;;5012891;28;20339;-83
2023/05/26 05:23:40;;;;;;;32.50;5.28;;;11.00;99.90;;;;;;5013638;28;20024;-85
2023/05/26 05:26:06;;;;;;;34.50;5.90;;;11.10;99.90;;;;;;5011053;28;20026;-87
2023/05/26 05:28:31;;;;;;;30.02;4.68;;;11.20;99.90;;;;;;5015253;28;20017;-85
2023/05/26 05:30:57;;;;;;;35.55;5.93;;;11.30;99.90;;;;;;5009579;28;20068;-88
2023/05/26 05:33:23;;;;;;;48.70;5.20;;;11.40;99.90;;;;;;5010900;28;20122;-84
2023/05/26 05:35:48;;;;;;;23.23;4.93;;;11.40;99.90;;;;;;5017028;28;20036;-86
2023/05/26 05:38:14;;;;;;;30.38;5.22;;;11.50;99.90;;;;;;5018511;28;20025;-86
2023/05/26 05:40:39;;;;;;;29.67;4.57;;;11.40;99.90;;;;;;5019613;28;20033;-88
2023/05/26 05:43:07;;;;;;;28.25;4.78;;;11.60;99.90;;;;;;5012724;28;20026;-86
2023/05/26 05:45:32;;;;;;;33.78;4.72;;;11.60;99.90;;;;;;5022197;28;20049;-88
2023/05/26 05:47:58;;;;;;;41.28;5.93;;;11.70;99.90;;;;;;5017732;28;20037;-87
2023/05/26 05:50:24;;;;;;;37.22;4.60;;;11.80;99.90;;;;;;5008457;28;20021;-85
2023/05/26 05:52:49;;;;;;;23.95;4.22;;;11.90;99.90;;;;;;5014993;28;20026;-85
2023/05/26 05:55:17;;;;;;;31.75;4.38;;;11.90;99.90;;;;;;5017164;28;20590;-87
2023/05/26 05:57:43;;;;;;;28.60;4.78;;;12.00;99.90;;;;;;5027891;28;20095;-85
2023/05/26 06:00:09;;;;;;;27.73;4.88;;;12.10;99.90;;;;;;5036552;28;20037;-83
2023/05/26 06:02:38;;;;;;;23.08;4.72;;;12.20;99.90;;;;;;5016829;28;20096;-85
2023/05/26 06:05:06;;;;;;;32.58;5.40;;;12.10;99.90;;;;;;5018195;28;20029;-83
2023/05/26 06:07:32;;;;;;;25.52;4.57;;;12.10;99.90;;;;;;5013082;28;20029;-86
2023/05/26 06:09:58;;;;;;;24.48;5.22;;;12.20;99.90;;;;;;5014934;28;20454;-86
2023/05/26 06:12:26;;;;;;;29.58;4.80;;;12.30;99.90;;;;;;5010429;28;20112;-87
2023/05/26 06:14:52;;;;;;;32.83;4.40;;;12.40;99.90;;;;;;5012294;28;20104;-86
2023/05/26 06:17:17;;;;;;;32.30;4.78;;;12.40;99.90;;;;;;5007500;28;20116;-83
2023/05/26 06:19:45;;;;;;;34.30;4.47;;;12.40;99.90;;;;;;5009739;28;20623;-85
2023/05/26 06:22:11;;;;;;;35.65;5.88;;;12.40;99.90;;;;;;5011398;28;20057;-84
2023/05/26 06:24:36;;;;;;;25.48;4.43;;;12.50;99.90;;;;;;5015026;28;20021;-85
2023/05/26 06:27:02;;;;;;;31.05;5.07;;;12.60;99.90;;;;;;5028593;28;20044;-85
2023/05/26 06:29:28;;;;;;;30.70;4.97;;;12.60;99.90;;;;;;5023502;28;20025;-84
2023/05/26 06:31:54;;;;;;;37.30;5.88;;;12.70;99.90;;;;;;5014933;28;20804;-84
2023/05/26 06:34:21;;;;;;;33.40;4.97;;;12.90;99.90;;;;;;5012437;28;20125;-85
2023/05/26 06:36:47;;;;;;;33.03;4.63;;;13.00;99.90;;;;;;5007567;28;20056;-84
2023/05/26 06:39:13;;;;;;;40.42;6.22;;;13.20;99.90;;;;;;5012609;28;20075;-84
2023/05/26 06:41:38;;;;;;;46.03;5.35;;;13.30;99.90;;;;;;5016339;28;20017;-84
2023/05/26 06:44:04;;;;;;;32.85;5.20;;;13.40;99.90;;;;;;5012140;28;20083;-84
2023/05/26 06:46:30;;;;;;;34.17;5.55;;;13.50;99.90;;;;;;5016706;28;20049;-85
2023/05/26 06:48:56;;;;;;;33.13;5.50;;;13.60;99.90;;;;;;5017212;28;20028;-85
2023/05/26 06:51:22;;;;;;;25.33;4.88;;;13.60;99.90;;;;;;5014486;28;20404;-81
2023/05/26 06:53:48;;;;;;;27.75;5.82;;;13.60;99.90;;;;;;5013454;28;20033;-83
2023/05/26 06:56:14;;;;;;;24.25;4.90;;;13.60;99.90;;;;;;5015480;28;20025;-83
2023/05/26 06:58:40;;;;;;;28.38;5.13;;;13.70;99.90;;;;;;5017633;28;20029;-85
2023/05/26 07:01:05;;;;;;;28.80;3.88;;;13.70;99.90;;;;;;5017721;28;20391;-84
2023/05/26 07:03:33;;;;;;;24.08;4.03;;;13.90;99.90;;;;;;5015526;28;20135;-86
2023/05/26 07:06:00;;;;;;;31.15;5.30;;;13.80;99.90;;;;;;5016469;28;20113;-84
2023/05/26 07:08:26;;;;;;;32.60;5.40;;;13.80;99.90;;;;;;5015720;28;20112;-84
2023/05/26 07:10:52;;;;;;;28.73;5.05;;;13.80;99.90;;;;;;5015337;28;20029;-84
2023/05/26 07:13:18;;;;;;;32.80;5.57;;;13.70;99.90;;;;;;5013640;28;20061;-83
2023/05/26 07:15:44;;;;;;;38.05;7.32;;;13.70;99.90;;;;;;5016587;28;20398;-84
2023/05/26 07:18:10;;;;;;;24.17;4.25;;;13.70;99.90;;;;;;5019532;28;20061;-82
2023/05/26 07:20:35;;;;;;;35.05;4.88;;;13.80;99.90;;;;;;5018119;28;20036;-84
2023/05/26 07:23:01;;;;;;;29.10;4.28;;;13.80;99.90;;;;;;5012297;28;20083;-84
2023/05/26 07:25:28;;;;;;;30.30;4.75;;;13.90;99.90;;;;;;5021516;28;20029;-87
2023/05/26 07:27:54;;;;;;;26.83;4.25;;;14.10;99.90;;;;;;5014301;28;20029;-84
2023/05/26 07:30:20;;;;;;;30.15;4.60;;;14.30;99.90;;;;;;5014061;28;21943;-85
2023/05/26 07:32:45;;;;;;;31.20;5.57;;;14.30;99.90;;;;;;5016332;28;20180;-80
2023/05/26 07:35:11;;;;;;;33.20;5.63;;;14.50;99.90;;;;;;5017398;28;20033;-84
2023/05/26 07:37:38;;;;;;;24.38;5.20;;;14.60;99.90;;;;;;5016616;28;20025;-84
2023/05/26 07:40:04;;;;;;;27.73;4.80;;;14.70;99.90;;;;;;5016283;28;20028;-84
2023/05/26 07:42:30;;;;;;;34.28;5.40;;;14.80;99.90;;;;;;5012552;28;20038;-81
2023/05/26 07:44:56;;;;;;;34.33;5.13;;;14.80;99.90;;;;;;5011604;28;20088;-84
2023/05/26 07:47:23;;;;;;;23.27;4.03;;;14.90;99.90;;;;;;5010521;28;20470;-84
2023/05/26 07:49:48;;;;;;;36.10;5.03;;;15.00;99.90;;;;;;5142437;22;20042;-81
2023/05/26 07:52:15;;;;;;;17.50;5.05;;;15.10;99.90;;;;;;4993200;28;20092;-84
2023/05/26 07:54:40;;;;;;;37.25;5.63;;;15.20;99.90;;;;;;4989437;28;20028;-85
2023/05/26 07:57:06;;;;;;;29.85;5.70;;;15.40;99.90;;;;;;5010466;28;20014;-86
2023/05/26 07:59:32;;;;;;;42.17;5.88;;;15.50;99.90;;;;;;4993450;28;20489;-85
2023/05/26 08:01:58;;;;;;;33.63;4.43;;;15.80;99.90;;;;;;5012698;28;20022;-85
2023/05/26 08:04:24;;;;;;;33.75;4.05;;;15.90;99.90;;;;;;4996943;28;20096;-86
2023/05/26 08:06:49;;;;;;;26.42;4.38;;;16.00;99.90;;;;;;5014229;28;20030;-84
2023/05/26 08:09:15;;;;;;;22.55;4.97;;;16.10;99.90;;;;;;4987954;28;20018;-84
2023/05/26 08:11:41;;;;;;;30.90;5.03;;;16.30;99.90;;;;;;5008426;28;20025;-85
2023/05/26 08:14:06;;;;;;;24.33;4.97;;;16.50;99.90;;;;;;4996502;28;20121;-86
2023/05/26 08:16:32;;;;;;;31.30;5.20;;;16.50;99.90;;;;;;5147302;22;20054;-86
2023/05/26 08:18:58;;;;;;;22.38;4.78;;;16.60;99.90;;;;;;4999071;28;20026;-83
2023/05/26 08:21:23;;;;;;;21.35;4.50;;;16.60;99.60;;;;;;4997722;28;20034;-87
2023/05/26 08:23:51;;;;;;;24.55;4.38;;;16.80;98.60;;;;;;4996575;28;20049;-86
2023/05/26 08:26:17;;;;;;;31.80;5.10;;;17.00;98.60;;;;;;4988169;28;20038;-84
2023/05/26 08:28:42;;;;;;;21.90;4.38;;;17.00;98.60;;;;;;4987637;28;20033;-83
2023/05/26 08:31:08;;;;;;;28.58;5.45;;;17.20;98.10;;;;;;4992966;28;20389;-86
2023/05/26 08:33:34;;;;;;;28.60;4.75;;;17.50;96.80;;;;;;4994340;28;20037;-85
2023/05/26 08:35:59;;;;;;;24.30;4.47;;;17.80;97.00;;;;;;4993948;28;20393;-85
2023/05/26 08:38:25;;;;;;;19.23;4.63;;;18.20;96.70;;;;;;4993751;28;20068;-87
2023/05/26 08:40:55;;;;;;;21.08;4.68;;;18.30;96.30;;;;;;4997934;28;20695;-88
2023/05/26 08:43:33;;;;;;;28.63;4.57;;;18.50;96.00;;;;;;4995485;28;20033;-84
2023/05/26 08:46:01;;;;;;;25.35;4.65;;;18.80;95.50;;;;;;5020772;28;20068;-83
2023/05/26 08:48:28;;;;;;;22.83;5.10;;;18.90;93.90;;;;;;4988483;28;20380;-81
2023/05/26 08:50:58;;;;;;;27.30;4.70;;;18.80;93.90;;;;;;4991148;28;20085;-84
2023/05/26 08:53:25;;;;;;;25.05;4.97;;;18.90;93.10;;;;;;4990899;28;20026;-83
2023/05/26 08:55:50;;;;;;;24.02;4.53;;;19.00;92.10;;;;;;4991646;28;20076;-81
2023/05/26 08:58:18;;;;;;;20.30;4.03;;;18.90;92.60;;;;;;4989532;28;20103;-86
2023/05/26 09:00:45;;;;;;;12.70;4.05;;;19.00;92.80;;;;;;4992459;28;20371;-87
2023/05/26 09:03:14;;;;;;;27.05;6.18;;;19.30;92.40;;;;;;4991880;28;20033;-86
2023/05/26 09:05:39;;;;;;;24.88;4.20;;;19.20;91.80;;;;;;4993938;28;20064;-85
2023/05/26 09:08:05;;;;;;;30.38;5.13;;;19.50;91.50;;;;;;4994111;28;20389;-82
2023/05/26 09:10:32;;;;;;;23.50;4.70;;;19.60;90.60;;;;;;4993194;28;20030;-85
2023/05/26 09:13:18;;;;;;;25.25;5.10;;;19.70;90.70;;;;;;4990929;28;20022;-85
2023/05/26 09:15:50;;;;;;;18.67;4.80;;;19.80;90.80;;;;;;4990798;28;20428;-80
2023/05/26 09:18:16;;;;;;;23.45;5.32;;;19.90;90.40;;;;;;4989962;28;20038;-81
2023/05/26 09:20:43;;;;;;;18.77;4.15;;;20.10;90.00;;;;;;4990227;28;20038;-81
2023/05/26 09:23:09;;;;;;;27.77;5.03;;;20.40;89.00;;;;;;4994971;28;20091;-86
2023/05/26 09:25:36;;;;;;;19.17;5.10;;;20.60;88.50;;;;;;5000476;28;20146;-86
2023/05/26 09:28:07;;;;;;;19.23;4.80;;;20.60;84.40;;;;;;5002349;28;20049;-85
2023/05/26 09:30:37;;;;;;;27.10;5.00;;;20.50;83.90;;;;;;4993145;28;20042;-84
2023/05/26 09:33:08;;;;;;;27.75;5.00;;;20.40;84.30;;;;;;4990935;28;20065;-85
2023/05/26 09:35:42;;;;;;;22.45;5.20;;;20.60;84.50;;;;;;5004434;28;20089;-85
2023/05/26 09:38:09;;;;;;;22.90;5.10;;;20.60;83.60;;;;;;5000167;28;20117;-87
2023/05/26 09:40:39;;;;;;;161.98;72.20;;;20.70;83.80;;;;;;4991571;28;20085;-85
2023/05/26 09:43:05;;;;;;;46.45;16.05;;;20.90;83.00;;;;;;4991904;28;20041;-88
2023/05/26 09:45:35;;;;;;;19.40;4.72;;;21.00;81.10;;;;;;4995004;28;20068;-85
2023/05/26 09:48:05;;;;;;;34.20;5.80;;;20.90;80.50;;;;;;4993525;28;20026;-85
2023/05/26 09:50:32;;;;;;;20.70;4.85;;;21.00;81.20;;;;;;4997546;28;20045;-85
2023/05/26 09:53:02;;;;;;;16.00;4.57;;;21.30;78.50;;;;;;5000454;28;20461;-85
2023/05/26 09:55:28;;;;;;;24.27;4.65;;;21.50;79.50;;;;;;4992698;28;20029;-84
2023/05/26 09:57:57;;;;;;;20.48;4.70;;;21.40;79.00;;;;;;4994144;28;20046;-82
2023/05/26 10:00:25;;;;;;;25.73;5.00;;;21.90;79.00;;;;;;4988795;28;20058;-82
2023/05/26 10:02:51;;;;;;;24.15;4.75;;;22.00;76.20;;;;;;4989451;28;20384;-83
2023/05/26 10:05:18;;;;;;;22.05;4.50;;;22.40;78.90;;;;;;4986855;28;20065;-83
2023/05/26 10:07:47;;;;;;;22.02;4.57;;;22.60;75.40;;;;;;4994993;28;20054;-83
2023/05/26 10:10:14;;;;;;;20.92;5.22;;;23.00;75.80;;;;;;4991686;28;20136;-83
2023/05/26 10:12:42;;;;;;;18.85;4.50;;;23.20;71.10;;;;;;4988521;28;20030;-82
2023/05/26 10:15:11;;;;;;;22.25;4.13;;;23.20;71.50;;;;;;4994407;28;20548;-81
2023/05/26 10:17:39;;;;;;;18.90;4.05;;;23.40;70.60;;;;;;4992238;28;20030;-82
2023/05/26 10:20:07;;;;;;;13.15;4.03;;;23.70;67.80;;;;;;4995405;28;20028;-85
2023/05/26 10:22:49;;;;;;;20.00;4.50;;;23.80;66.20;;;;;;4996445;28;20031;-81
2023/05/26 10:25:39;;;;;;;20.17;4.72;;;23.70;67.90;;;;;;4993110;28;20056;-82
2023/05/26 10:28:22;;;;;;;18.27;4.75;;;23.90;65.10;;;;;;4998271;28;20102;-81
2023/05/26 10:30:47;;;;;;;14.40;4.25;;;24.20;65.20;;;;;;4993086;28;20025;-82
2023/05/26 10:33:15;;;;;;;258.08;124.55;;;24.00;63.80;;;;;;4995488;28;20526;-82
2023/05/26 10:35:54;;;;;;;14.60;4.18;;;23.90;63.70;;;;;;4994453;28;20026;-85
2023/05/26 10:38:32;;;;;;;17.52;5.38;;;24.00;63.20;;;;;;5011005;28;20026;-82
2023/05/26 10:40:57;;;;;;;19.25;4.70;;;24.00;62.80;;;;;;5001254;28;20114;-86
2023/05/26 10:43:26;;;;;;;17.60;4.45;;;23.80;62.80;;;;;;4997764;28;20022;-86
2023/05/26 10:45:52;;;;;;;15.82;5.25;;;23.50;64.70;;;;;;4997753;28;20025;-85
2023/05/26 10:48:18;;;;;;;18.70;4.45;;;23.80;64.60;;;;;;5002735;28;20069;-85
2023/05/26 10:50:58;;;;;;;19.42;4.57;;;24.10;63.20;;;;;;4996472;28;20061;-86
2023/05/26 10:53:25;;;;;;;17.15;4.22;;;24.10;61.80;;;;;;4994751;28;20037;-85
2023/05/26 10:56:02;;;;;;;17.02;4.53;;;24.40;60.70;;;;;;5008127;28;20019;-85
2023/05/26 10:58:45;;;;;;;23.05;5.15;;;24.50;61.80;;;;;;5007412;28;20355;-80
2023/05/26 11:01:12;;;;;;;15.73;4.45;;;24.40;61.50;;;;;;5141020;22;20049;-82
2023/05/26 11:03:42;;;;;;;20.92;5.05;;;24.60;62.20;;;;;;5007094;28;20094;-82
2023/05/26 11:06:12;;;;;;;19.73;4.90;;;24.50;58.70;;;;;;5005921;28;20191;-81
2023/05/26 11:08:41;;;;;;;23.60;4.93;;;24.10;59.80;;;;;;5008425;28;20524;-82
2023/05/26 11:11:10;;;;;;;16.75;4.53;;;23.80;60.10;;;;;;5009095;28;20037;-80
2023/05/26 11:13:50;;;;;;;15.40;4.10;;;23.50;60.10;;;;;;5013653;28;20045;-83
2023/05/26 11:16:17;;;;;;;15.07;3.78;;;23.40;61.70;;;;;;5015374;28;20033;-84
2023/05/26 11:19:12;;;;;;;18.58;4.72;;;23.50;61.60;;;;;;5012457;28;20453;-84
2023/05/26 11:21:40;;;;;;;14.07;3.97;;;23.90;62.10;;;;;;5009449;28;20037;-81
2023/05/26 11:24:06;;;;;;;21.48;5.05;;;23.70;62.20;;;;;;5011175;28;20030;-86
2023/05/26 11:26:33;;;;;;;18.23;5.03;;;23.80;61.00;;;;;;5012802;28;20033;-78
2023/05/26 11:29:05;;;;;;;19.15;4.35;;;23.90;61.40;;;;;;5013555;28;20022;-82
2023/05/26 11:31:31;;;;;;;26.50;5.40;;;24.10;59.80;;;;;;5011389;28;20540;-83
2023/05/26 11:33:57;;;;;;;22.05;4.15;;;24.20;61.30;;;;;;5016468;28;20033;-82
2023/05/26 11:36:24;;;;;;;15.85;4.15;;;24.20;60.30;;;;;;5011130;28;20157;-83
2023/05/26 11:38:57;;;;;;;18.40;4.25;;;24.00;59.20;;;;;;5015227;28;20018;-84
2023/05/26 11:41:26;;;;;;;17.65;4.22;;;24.10;59.60;;;;;;5011426;28;20141;-82
2023/05/26 11:43:53;;;;;;;14.23;4.43;;;23.90;58.90;;;;;;5018022;28;20562;-80
2023/05/26 11:46:20;;;;;;;20.95;4.32;;;24.10;56.70;;;;;;5010489;28;20303;-82
2023/05/26 11:48:46;;;;;;;21.55;4.25;;;24.10;57.30;;;;;;5016266;28;20037;-84
2023/05/26 11:51:14;;;;;;;15.85;3.70;;;24.40;56.90;;;;;;5013938;28;20336;-85
2023/05/26 11:53:42;;;;;;;13.45;3.55;;;24.30;55.30;;;;;;5010499;28;20025;-85
2023/05/26 11:56:16;;;;;;;26.88;6.18;;;24.40;55.90;;;;;;5009485;28;20060;-84
2023/05/26 11:58:53;;;;;;;16.95;3.88;;;24.20;57.10;;;;;;5014992;28;20401;-85
2023/05/26 12:01:21;;;;;;;18.65;4.38;;;24.40;57.40;;;;;;5024135;28;20382;-85
2023/05/26 12:03:49;;;;;;;17.45;4.43;;;24.50;56.90;;;;;;5013726;28;20741;-85
2023/05/26 12:06:20;;;;;;;15.98;4.00;;;24.50;54.20;;;;;;5008828;28;20033;-84
2023/05/26 12:08:48;;;;;;;11.40;3.63;;;24.60;54.20;;;;;;5010284;28;20676;-80
2023/05/26 12:11:19;;;;;;;14.68;4.57;;;24.70;53.80;;;;;;5010048;28;20045;-81
2023/05/26 12:13:46;;;;;;;17.17;4.90;;;24.70;54.70;;;;;;5008054;28;20033;-80
2023/05/26 12:16:22;;;;;;;17.75;4.05;;;24.50;55.70;;;;;;5011207;28;20065;-84
2023/05/26 12:18:51;;;;;;;10.50;4.00;;;24.50;56.00;;;;;;5147439;22;20103;-84
2023/05/26 12:21:17;;;;;;;24.67;5.40;;;24.70;56.90;;;;;;5013201;28;20025;-84
2023/05/26 12:23:42;;;;;;;9.90;3.85;;;24.80;55.00;;;;;;5004329;28;20014;-84
2023/05/26 12:26:16;;;;;;;12.52;3.83;;;25.00;55.50;;;;;;5011270;28;20169;-84
2023/05/26 12:28:43;;;;;;;14.30;3.70;;;25.10;52.50;;;;;;5012098;28;20064;-84
2023/05/26 12:31:09;;;;;;;15.32;4.22;;;25.10;54.20;;;;;;5005145;28;20480;-81
2023/05/26 12:33:36;;;;;;;12.02;3.78;;;25.10;53.00;;;;;;5010374;28;20036;-82
2023/05/26 12:36:02;;;;;;;16.40;3.85;;;25.20;53.60;;;;;;5007430;28;20377;-81
2023/05/26 12:38:28;;;;;;;16.02;3.78;;;25.40;52.80;;;;;;5008946;28;20021;-84
2023/05/26 12:40:53;;;;;;;20.45;5.03;;;25.40;53.40;;;;;;5008642;28;20041;-84
2023/05/26 12:43:21;;;;;;;18.42;4.13;;;25.40;53.70;;;;;;5013683;28;20055;-85
2023/05/26 12:45:46;;;;;;;13.13;4.35;;;25.40;53.00;;;;;;5008800;28;20022;-84